Time;durP1;ratioP1;P1;durP2;ratioP2;P2;SDS_P1;SDS_P2;PMS_P1;PMS_P2;Temp;Humidity;BMP_temperature;BMP_pressure;BME280_temperature;BME280_humidity;BME280_pressure;Samples;Min_cycle;Max_cycle;Signal;HPM_P1;HPM_P2
2023/07/03 00:00:46;;;;;;;;;4.25;2.25;;;;;22.07;47.39;100700.94;4848449;29;45491;-74
2023/07/03 00:03:18;;;;;;;;;6.00;4.67;;;;;21.97;47.66;100713.00;4847909;29;47779;-74
2023/07/03 00:05:44;;;;;;;;;4.67;4.67;;;;;21.97;47.65;100718.44;4847616;29;45400;-74
2023/07/03 00:08:10;;;;;;;;;8.00;6.00;;;;;21.93;47.77;100714.06;4847502;29;45429;-74
2023/07/03 00:10:36;;;;;;;;;5.67;4.00;;;;;21.89;47.93;100701.56;4864333;29;45453;-74
2023/07/03 00:13:03;;;;;;;;;5.67;5.67;;;;;21.89;48.84;100699.72;4864150;29;45452;-74
2023/07/03 00:15:28;;;;;;;;;7.67;6.00;;;;;21.71;49.03;100695.84;4863871;29;45481;-73
2023/07/03 00:17:54;;;;;;;;;7.00;4.00;;;;;21.72;49.76;100705.72;4864189;29;45486;-73
2023/07/03 00:20:19;;;;;;;;;6.00;6.00;;;;;21.68;50.25;100700.47;4847570;29;45654;-73
2023/07/03 00:22:47;;;;;;;;;4.33;4.33;;;;;21.68;49.66;100690.50;4847264;29;46675;-74
2023/07/03 00:25:15;;;;;;;;;5.00;4.33;;;;;21.80;49.94;100681.09;4847229;29;45409;-74
2023/07/03 00:27:40;;;;;;;;;4.00;4.00;;;;;21.72;50.27;100683.19;4863776;29;45427;-74
2023/07/03 00:30:07;;;;;;;;;4.67;3.33;;;;;21.76;50.04;100690.25;4863311;29;45412;-74
2023/07/03 00:32:32;;;;;;;;;3.33;3.33;;;;;21.78;50.06;100689.25;4847390;29;48002;-74
2023/07/03 00:34:58;;;;;;;;;4.67;4.00;;;;;21.78;50.11;100691.97;4864004;29;45843;-74
2023/07/03 00:37:23;;;;;;;;;7.00;5.00;;;;;21.75;49.73;100686.69;4862111;29;45587;-74
2023/07/03 00:39:49;;;;;;;;;4.67;4.67;;;;;21.74;50.33;100681.31;4846878;29;45636;-73
2023/07/03 00:42:14;;;;;;;;;5.67;4.00;;;;;21.79;50.60;100684.72;4863614;29;45696;-74
2023/07/03 00:44:40;;;;;;;;;4.00;4.00;;;;;21.76;50.54;100685.72;4862971;29;45476;-73
2023/07/03 00:47:08;;;;;;;;;6.33;4.67;;;;;21.69;50.55;100680.56;4847086;29;45828;-74
2023/07/03 00:49:33;;;;;;;;;3.00;3.00;;;;;21.61;51.00;100686.22;4863319;29;45428;-74
2023/07/03 00:52:01;;;;;;;;;4.67;4.67;;;;;21.65;51.31;100679.75;4863457;29;46436;-73
2023/07/03 00:54:27;;;;;;;;;7.33;5.67;;;;;21.60;51.34;100686.28;4846968;29;45392;-74
2023/07/03 00:56:52;;;;;;;;;5.00;5.00;;;;;21.69;51.31;100681.47;4846336;29;45486;-74
2023/07/03 00:59:18;;;;;;;;;4.67;4.00;;;;;21.75;50.85;100683.97;4863182;29;44861;-74
2023/07/03 01:02:03;;;;;;;;;5.33;3.67;;;;;21.78;50.98;100686.56;4862685;29;45463;-74
2023/07/03 01:04:49;;;;;;;;;4.00;4.00;;;;;21.75;51.50;100683.97;4862707;29;45457;-73
2023/07/03 01:07:20;;;;;;;;;4.00;4.00;;;;;21.73;51.63;100685.84;4846148;29;45359;-74
2023/07/03 01:09:54;;;;;;;;;4.33;4.33;;;;;21.77;51.56;100678.47;4862738;29;45439;-74
2023/07/03 01:12:23;;;;;;;;;3.33;3.00;;;;;21.77;52.12;100682.09;4845308;29;47153;-74
2023/07/03 01:14:49;;;;;;;;;3.33;3.00;;;;;21.72;51.62;100683.19;4860919;29;45601;-74
2023/07/03 01:17:16;;;;;;;;;8.33;7.00;;;;;21.69;52.76;100673.34;4845514;29;45491;-74
2023/07/03 01:19:48;;;;;;;;;4.00;4.00;;;;;21.73;52.46;100674.09;4845504;29;45411;-74
2023/07/03 01:22:21;;;;;;;;;5.00;4.00;;;;;21.66;52.52;100675.25;4862605;29;45669;-74
2023/07/03 01:24:58;;;;;;;;;8.00;5.00;;;;;21.66;52.42;100672.56;4861207;29;45445;-74
2023/07/03 01:27:30;;;;;;;;;6.67;6.67;;;;;21.67;52.12;100677.00;4845310;29;45463;-74
2023/07/03 01:29:57;;;;;;;;;5.33;5.33;;;;;21.51;52.59;100674.84;4862320;29;45416;-74
2023/07/03 01:32:26;;;;;;;;;5.00;4.00;;;;;21.52;52.99;100681.13;4862191;29;46018;-74
2023/07/03 01:34:53;;;;;;;;;5.67;4.33;;;;;21.50;53.15;100667.63;4845719;29;45460;-73
2023/07/03 01:37:23;;;;;;;;;5.67;5.00;;;;;21.54;52.75;100665.72;4862155;29;44756;-73
2023/07/03 01:39:51;;;;;;;;;6.33;5.67;;;;;21.62;52.29;100670.88;4845245;29;45503;-74
2023/07/03 01:42:17;;;;;;;;;8.67;6.00;;;;;21.60;52.33;100672.75;4861812;29;45993;-73
2023/07/03 01:44:43;;;;;;;;;4.00;4.00;;;;;21.54;52.41;100673.84;4846035;29;45472;-73
2023/07/03 01:47:12;;;;;;;;;5.67;5.67;;;;;21.68;53.09;100687.81;4861041;29;45447;-74
2023/07/03 01:49:38;;;;;;;;;6.00;4.00;;;;;21.64;53.15;100680.72;4861375;29;45538;-74
2023/07/03 01:52:18;;;;;;;;;8.67;6.33;;;;;21.78;52.71;100682.97;4862113;29;45526;-75
2023/07/03 01:55:16;;;;;;;;;6.67;5.67;;;;;21.77;52.71;100681.19;4845497;29;45449;-74
2023/07/03 01:57:52;;;;;;;;;4.00;4.00;;;;;21.70;52.74;100675.09;4769290;29;45412;-74
2023/07/03 02:00:26;;;;;;;;;5.33;5.00;;;;;21.63;53.00;100673.50;4754153;29;45544;-74
2023/07/03 02:02:54;;;;;;;;;4.33;4.33;;;;;21.64;52.80;100679.84;4753495;29;47223;-74
2023/07/03 02:05:27;;;;;;;;;4.67;4.67;;;;;21.71;52.91;100667.84;4768531;29;45462;-73
2023/07/03 02:07:58;;;;;;;;;2.33;2.33;;;;;21.70;53.18;100677.81;4753281;29;45507;-73
2023/07/03 02:10:23;;;;;;;;;5.00;5.00;;;;;21.62;53.66;100674.47;4768568;29;45469;-73
2023/07/03 02:12:49;;;;;;;;;5.00;5.00;;;;;21.60;53.31;100673.63;4753844;29;47988;-74
2023/07/03 02:15:14;;;;;;;;;5.00;4.00;;;;;21.58;53.33;100667.38;4752707;29;45718;-74
2023/07/03 02:17:41;;;;;;;;;4.33;4.33;;;;;21.59;53.89;100674.56;4753203;29;45486;-74
2023/07/03 02:20:13;;;;;;;;;3.00;3.00;;;;;21.61;53.53;100675.38;4769509;29;45372;-74
2023/07/03 02:22:42;;;;;;;;;7.00;5.00;;;;;21.55;54.71;100660.25;4768789;29;46057;-74
2023/07/03 02:25:08;;;;;;;;;6.67;5.33;;;;;21.50;53.85;100651.41;4754494;29;45515;-74
2023/07/03 02:27:34;;;;;;;;;8.67;6.00;;;;;21.52;53.53;100652.22;4754429;29;45484;-74
2023/07/03 02:29:59;;;;;;;;;5.33;5.33;;;;;21.53;54.76;100643.19;4768705;29;45507;-74
2023/07/03 02:32:37;;;;;;;;;5.50;5.50;;;;;21.58;53.95;100651.16;4769278;29;46046;-74
2023/07/03 02:35:03;;;;;;;;;8.33;6.00;;;;;21.43;54.55;100646.22;4824432;29;45517;-74
2023/07/03 02:37:29;;;;;;;;;6.67;5.67;;;;;21.42;54.48;100650.72;4845554;29;45408;-74
2023/07/03 02:39:55;;;;;;;;;5.33;5.00;;;;;21.43;54.72;100654.34;4860989;29;45324;-73
2023/07/03 02:42:20;;;;;;;;;6.00;6.00;;;;;21.44;54.53;100648.00;4862356;29;45681;-73
2023/07/03 02:44:46;;;;;;;;;6.33;5.67;;;;;21.47;55.10;100648.81;4845947;29;45726;-74
2023/07/03 02:47:12;;;;;;;;;3.33;3.33;;;;;21.41;54.65;100667.91;4863027;29;45462;-73
2023/07/03 02:49:37;;;;;;;;;10.33;7.00;;;;;21.42;54.96;100644.44;4846593;29;45461;-73
2023/07/03 02:52:03;;;;;;;;;7.00;6.00;;;;;21.42;55.04;100649.84;4863641;29;46328;-73
2023/07/03 02:54:29;;;;;;;;;6.00;6.00;;;;;21.41;55.36;100654.38;4865679;29;45558;-73
2023/07/03 02:56:54;;;;;;;;;4.67;3.67;;;;;21.38;55.25;100657.16;4848533;29;45504;-73
2023/07/03 02:59:19;;;;;;;;;5.00;5.00;;;;;21.34;56.07;100652.78;4848800;29;45488;-73
2023/07/03 03:01:45;;;;;;;;;7.00;6.00;;;;;21.31;56.16;100661.00;4865117;29;46307;-74
2023/07/03 03:04:10;;;;;;;;;7.67;5.00;;;;;21.28;56.25;100658.41;4848676;29;45748;-73
2023/07/03 03:06:36;;;;;;;;;10.00;7.33;;;;;21.21;56.37;100659.50;4847789;29;45518;-74
2023/07/03 03:09:05;;;;;;;;;10.33;9.00;;;;;21.26;56.36;100663.84;4865182;29;45473;-73
2023/07/03 03:11:30;;;;;;;;;4.33;4.33;;;;;21.15;56.45;100649.81;4847752;29;46294;-74
2023/07/03 03:13:55;;;;;;;;;9.00;8.33;;;;;21.14;56.45;100645.31;4865193;29;45850;-73
2023/07/03 03:16:21;;;;;;;;;9.00;7.33;;;;;21.06;56.57;100640.13;4864709;29;45347;-73
2023/07/03 03:18:47;;;;;;;;;5.67;5.67;;;;;21.08;56.71;100653.63;4848672;29;45433;-74
2023/07/03 03:21:15;;;;;;;;;8.00;8.00;;;;;21.04;56.92;100635.72;4864874;29;45669;-74
2023/07/03 03:23:40;;;;;;;;;9.00;6.00;;;;;21.02;57.05;100632.16;4847373;29;45487;-74
2023/07/03 03:26:06;;;;;;;;;6.67;5.67;;;;;21.03;57.35;100647.47;4865081;29;45584;-73
2023/07/03 03:28:32;;;;;;;;;8.33;7.00;;;;;21.04;57.10;100641.13;4864255;29;45453;-74
2023/07/03 03:30:58;;;;;;;;;11.33;9.67;;;;;21.02;56.81;100646.56;4847648;29;48013;-73
2023/07/03 03:33:23;;;;;;;;;4.67;4.67;;;;;21.06;56.92;100659.06;4865250;29;45519;-73
2023/07/03 03:35:49;;;;;;;;;9.00;7.00;;;;;21.08;56.99;100648.19;4865178;29;45396;-73
2023/07/03 03:38:14;;;;;;;;;4.00;4.00;;;;;21.10;57.34;100651.75;4864622;29;45367;-73
2023/07/03 03:40:39;;;;;;;;;7.00;6.67;;;;;21.14;57.56;100642.59;4864495;29;45769;-74
2023/07/03 03:43:05;;;;;;;;;8.33;6.00;;;;;21.16;57.34;100643.44;4846840;29;45472;-74
2023/07/03 03:45:30;;;;;;;;;9.33;8.00;;;;;21.18;58.07;100638.88;4846764;29;45461;-75
2023/07/03 03:47:56;;;;;;;;;7.67;7.67;;;;;21.11;57.70;100637.31;4863972;29;45306;-74
2023/07/03 03:50:21;;;;;;;;;7.33;7.33;;;;;21.05;57.90;100640.19;4846070;29;46307;-74
2023/07/03 03:52:46;;;;;;;;;5.33;5.33;;;;;21.00;58.07;100636.75;4847114;29;45654;-74
2023/07/03 03:55:12;;;;;;;;;8.33;7.00;;;;;21.03;58.93;100639.38;4864007;29;46084;-73
2023/07/03 03:57:37;;;;;;;;;8.00;8.00;;;;;20.95;58.77;100631.47;4846732;29;45474;-75
2023/07/03 04:00:11;;;;;;;;;8.00;8.00;;;;;21.06;58.78;100645.53;4864095;29;45438;-74
2023/07/03 04:02:36;;;;;;;;;9.33;8.00;;;;;21.04;58.44;100650.09;4863500;29;45315;-75
2023/07/03 04:05:01;;;;;;;;;10.00;10.00;;;;;21.10;58.13;100647.22;4845749;29;45281;-74
2023/07/03 04:07:27;;;;;;;;;9.00;8.00;;;;;21.13;58.24;100649.84;4863876;29;45466;-75
2023/07/03 04:09:52;;;;;;;;;10.00;7.00;;;;;21.10;58.60;100649.03;4862980;29;45771;-74
2023/07/03 04:12:19;;;;;;;;;7.00;7.00;;;;;21.18;59.17;100642.44;4846530;29;45558;-76
2023/07/03 04:14:44;;;;;;;;;6.33;6.00;;;;;21.20;58.33;100647.81;4863143;29;45471;-74
2023/07/03 04:17:10;;;;;;;;;12.00;11.00;;;;;21.26;58.64;100641.34;4846076;29;45796;-75
2023/07/03 04:19:35;;;;;;;;;8.00;7.67;;;;;21.27;58.77;100648.50;4862644;29;45538;-74
2023/07/03 04:22:07;;;;;;;;;9.33;9.33;;;;;21.32;59.18;100652.84;4845556;29;45445;-75
2023/07/03 04:24:34;;;;;;;;;9.33;8.67;;;;;21.18;59.75;100645.16;4845751;29;45659;-74
2023/07/03 04:27:03;;;;;;;;;11.00;10.00;;;;;21.20;59.68;100639.69;4862606;29;45482;-75
2023/07/03 04:29:28;;;;;;;;;9.00;8.00;;;;;21.07;60.28;100635.63;4862212;29;45427;-74
2023/07/03 04:31:54;;;;;;;;;8.33;8.33;;;;;21.08;59.88;100649.09;4845956;29;45335;-75
2023/07/03 04:34:20;;;;;;;;;9.00;8.00;;;;;21.18;59.73;100644.28;4862642;29;45364;-74
2023/07/03 04:36:47;;;;;;;;;8.00;8.00;;;;;21.13;60.10;100646.25;4862902;29;45338;-74
2023/07/03 04:39:13;;;;;;;;;9.00;9.00;;;;;21.15;59.90;100642.56;4862460;29;46096;-75
2023/07/03 04:41:38;;;;;;;;;10.67;8.67;;;;;21.24;60.05;100649.50;4863159;29;45663;-74
2023/07/03 04:44:13;;;;;;;;;9.00;7.33;;;;;21.26;60.11;100647.63;4863506;29;45461;-74
2023/07/03 04:46:40;;;;;;;;;8.67;7.67;;;;;21.26;60.56;100639.50;4863336;29;45442;-74
2023/07/03 04:49:05;;;;;;;;;8.00;6.00;;;;;21.21;60.52;100636.09;4862583;29;45899;-74
2023/07/03 04:51:32;;;;;;;;;7.67;7.67;;;;;21.23;60.60;100636.00;4861222;29;45353;-75
2023/07/03 04:53:59;;;;;;;;;8.67;7.67;;;;;21.24;61.33;100646.78;4863466;29;45435;-75
2023/07/03 04:56:25;;;;;;;;;9.00;8.33;;;;;21.24;61.31;100638.66;4846492;29;45659;-74
2023/07/03 04:58:51;;;;;;;;;9.00;8.33;;;;;21.21;60.77;100643.28;4846079;29;48263;-74
2023/07/03 05:01:18;;;;;;;;;5.00;5.00;;;;;21.23;61.13;100653.16;4862650;29;45714;-74
2023/07/03 05:03:43;;;;;;;;;8.33;8.00;;;;;21.18;61.27;100638.88;4862516;29;45482;-74
2023/07/03 05:06:10;;;;;;;;;7.00;6.00;;;;;21.26;61.04;100635.94;4845845;29;45461;-75
2023/07/03 05:08:35;;;;;;;;;9.33;8.67;;;;;21.24;61.07;100651.31;4861444;29;45918;-75
2023/07/03 05:11:01;;;;;;;;;9.67;8.33;;;;;21.25;61.23;100648.56;4861593;29;45488;-75
2023/07/03 05:13:27;;;;;;;;;7.33;7.33;;;;;21.31;61.00;100645.66;4844946;29;44836;-74
2023/07/03 05:15:53;;;;;;;;;9.00;7.00;;;;;21.37;61.42;100650.88;4859968;29;45594;-74
2023/07/03 05:18:19;;;;;;;;;10.00;7.00;;;;;21.32;61.50;100652.84;4844394;29;47292;-75
2023/07/03 05:20:44;;;;;;;;;7.67;7.67;;;;;21.30;61.25;100646.59;4861520;29;45315;-74
2023/07/03 05:23:13;;;;;;;;;7.33;7.33;;;;;21.44;61.03;100645.31;4861494;29;45370;-74
2023/07/03 05:25:39;;;;;;;;;9.33;6.67;;;;;21.47;60.49;100646.09;4844498;29;45516;-74
2023/07/03 05:28:04;;;;;;;;;10.00;7.67;;;;;21.55;60.44;100646.72;4844113;29;45978;-74
2023/07/03 05:30:30;;;;;;;;;5.67;5.67;;;;;21.59;60.46;100642.06;4870416;29;45579;-75
2023/07/03 05:32:55;;;;;;;;;8.33;8.33;;;;;21.67;60.81;100637.31;4861654;29;45494;-74
2023/07/03 05:35:21;;;;;;;;;6.00;6.00;;;;;21.70;60.56;100630.91;4861601;29;45646;-75
2023/07/03 05:37:46;;;;;;;;;9.67;7.33;;;;;21.74;60.52;100628.03;4859556;29;46663;-75
2023/07/03 05:40:14;;;;;;;;;6.33;6.33;;;;;21.86;60.50;100637.56;4859114;29;45475;-74
2023/07/03 05:42:40;;;;;;;;;6.67;6.67;;;;;21.89;60.07;100639.28;4861080;29;45466;-74
2023/07/03 05:45:06;;;;;;;;;7.00;7.00;;;;;21.91;60.38;100642.81;4860509;29;45409;-75
2023/07/03 05:47:35;;;;;;;;;7.00;7.00;;;;;21.85;59.60;100633.06;4861618;29;45705;-76
2023/07/03 05:50:02;;;;;;;;;7.67;6.00;;;;;21.86;59.57;100631.28;4861791;29;45818;-75
2023/07/03 05:52:27;;;;;;;;;7.67;6.00;;;;;21.88;59.31;100640.22;4859904;29;45355;-75
2023/07/03 05:54:53;;;;;;;;;6.67;6.33;;;;;21.86;58.86;100634.00;4861853;29;45758;-74
2023/07/03 05:57:19;;;;;;;;;6.33;6.00;;;;;21.91;58.36;100642.81;4861272;29;45414;-75
2023/07/03 05:59:44;;;;;;;;;9.00;6.00;;;;;21.92;58.28;100636.47;4859727;29;45507;-75
2023/07/03 06:02:12;;;;;;;;;7.00;7.00;;;;;22.03;58.26;100644.22;4861568;29;45398;-75
2023/07/03 06:04:38;;;;;;;;;7.00;5.00;;;;;21.95;57.88;100641.78;4861639;29;45500;-75
2023/07/03 06:07:04;;;;;;;;;6.33;6.33;;;;;22.06;57.44;100653.13;4861906;29;45556;-75
2023/07/03 06:09:30;;;;;;;;;9.67;7.33;;;;;22.12;56.75;100639.38;4862035;29;45429;-74
2023/07/03 06:11:56;;;;;;;;;8.00;7.00;;;;;22.25;56.31;100644.38;4862008;29;45545;-74
2023/07/03 06:14:23;;;;;;;;;7.00;7.00;;;;;22.41;55.71;100642.88;4866027;29;45511;-74
2023/07/03 06:16:50;;;;;;;;;7.00;7.00;;;;;22.47;55.30;100639.94;4865346;29;45379;-75
2023/07/03 06:19:18;;;;;;;;;6.00;6.00;;;;;22.61;54.40;100647.56;4860915;29;45415;-75
2023/07/03 06:21:43;;;;;;;;;7.00;7.00;;;;;22.58;54.27;100650.38;4860836;29;45346;-73
2023/07/03 06:24:10;;;;;;;;;7.00;5.33;;;;;22.70;53.89;100647.22;4859638;29;45452;-74
2023/07/03 06:26:38;;;;;;;;;6.00;4.67;;;;;22.75;53.64;100634.38;4861055;29;45506;-75
2023/07/03 06:29:05;;;;;;;;;4.00;4.00;;;;;22.89;53.72;100639.28;4878138;29;45558;-74
2023/07/03 06:31:30;;;;;;;;;7.33;6.00;;;;;23.02;53.39;100633.41;4847843;29;45305;-74
2023/07/03 06:33:56;;;;;;;;;6.67;6.67;;;;;23.11;53.45;100641.19;4864842;29;45495;-75
2023/07/03 06:36:21;;;;;;;;;6.00;6.00;;;;;23.29;53.18;100656.72;4864565;29;45667;-75
2023/07/03 06:38:52;;;;;;;;;7.00;6.67;;;;;23.56;52.35;100651.13;4865088;29;45384;-75
2023/07/03 06:41:23;;;;;;;;;5.33;5.00;;;;;23.66;52.61;100649.78;4847957;29;45416;-75
2023/07/03 06:43:49;;;;;;;;;7.00;7.00;;;;;23.64;51.96;100635.38;4862130;29;45676;-75
2023/07/03 06:46:15;;;;;;;;;7.33;6.00;;;;;23.65;52.69;100642.59;4864566;29;46380;-75
2023/07/03 06:48:41;;;;;;;;;8.00;6.67;;;;;23.76;52.10;100644.84;4864279;29;45406;-75
2023/07/03 06:51:08;;;;;;;;;6.00;6.00;;;;;23.83;51.72;100642.78;4864442;29;45490;-75
2023/07/03 06:53:34;;;;;;;;;5.00;5.00;;;;;23.90;51.43;100644.31;4865113;29;45430;-74
2023/07/03 06:56:02;;;;;;;;;7.67;6.33;;;;;24.05;51.21;100640.03;4864795;29;46189;-74
2023/07/03 06:58:32;;;;;;;;;8.00;5.33;;;;;24.10;51.02;100640.72;4864535;29;45523;-75
2023/07/03 07:00:58;;;;;;;;;7.00;7.00;;;;;24.11;50.68;100646.06;4848935;29;45444;-74
2023/07/03 07:03:24;;;;;;;;;6.00;4.00;;;;;24.19;50.66;100647.59;4848149;29;45595;-75
2023/07/03 07:05:53;;;;;;;;;5.00;5.00;;;;;24.31;50.75;100658.78;4865648;29;46084;-74
2023/07/03 07:08:18;;;;;;;;;6.33;6.00;;;;;24.23;50.41;100652.81;4853902;29;45527;-81
2023/07/03 07:10:50;;;;;;;;;3.00;3.00;;;;;24.31;50.46;100656.06;4880640;29;45251;-83
2023/07/03 07:13:15;;;;;;;;;5.33;4.33;;;;;24.32;50.46;100654.25;4859008;29;45338;-80
2023/07/03 07:15:41;;;;;;;;;7.33;7.33;;;;;24.29;50.60;100651.66;4871632;29;46114;-81
2023/07/03 07:18:08;;;;;;;;;7.33;6.33;;;;;24.41;50.25;100653.81;4854007;29;46034;-80
2023/07/03 07:20:39;;;;;;;;;7.33;6.33;;;;;24.57;49.98;100659.50;4856734;29;45534;-80
2023/07/03 07:23:06;;;;;;;;;6.33;6.33;;;;;24.50;50.68;100647.09;4870306;29;45381;-80
2023/07/03 07:25:31;;;;;;;;;5.67;5.67;;;;;24.51;50.14;100649.78;4854798;29;45663;-80
2023/07/03 07:27:57;;;;;;;;;7.00;6.33;;;;;24.42;49.92;100642.00;4853617;29;45369;-80
2023/07/03 07:30:23;;;;;;;;;8.00;8.00;;;;;24.51;50.21;100666.09;4870650;29;44869;-81
2023/07/03 07:32:49;;;;;;;;;8.00;8.00;;;;;24.36;49.67;100659.47;4855329;29;45433;-81
2023/07/03 07:35:22;;;;;;;;;9.33;7.33;;;;;24.35;50.08;100670.41;4842774;29;47598;-82
2023/07/03 07:37:48;;;;;;;;;8.00;5.00;;;;;24.19;50.11;100674.75;4847390;29;45428;-81
2023/07/03 07:44:18;;;;;;;;;11.00;10.00;;;;;24.29;50.82;100678.84;4853438;29;44807;-81
2023/07/03 07:46:43;;;;;;;;;12.67;7.33;;;;;24.22;50.25;100669.16;4864093;29;45967;-81
2023/07/03 07:49:09;;;;;;;;;7.33;6.33;;;;;24.29;50.34;100674.28;4862467;29;45451;-81
2023/07/03 07:51:45;;;;;;;;;7.67;7.67;;;;;24.37;50.54;100663.06;4871205;29;45774;-81
2023/07/03 07:54:11;;;;;;;;;8.00;8.00;;;;;24.41;50.13;100672.84;4866161;29;44988;-81
2023/07/03 07:56:36;;;;;;;;;5.33;5.33;;;;;24.43;50.08;100673.66;4850830;29;46923;-82
2023/07/03 07:59:02;;;;;;;;;8.00;7.67;;;;;24.50;50.44;100675.22;4861681;29;45392;-80
2023/07/03 08:01:30;;;;;;;;;8.33;7.67;;;;;24.51;50.14;100668.81;4867458;29;45187;-80
2023/07/03 08:03:55;;;;;;;;;7.67;6.67;;;;;24.57;50.24;100669.50;4866966;29;45606;-82
2023/07/03 08:09:46;;;;;;;;;8.00;6.00;;;;;24.73;50.32;100665.13;4874028;29;44916;-81
2023/07/03 08:12:17;;;;;;;;;9.00;7.00;;;;;24.78;50.07;100644.00;4866331;29;45405;-82
2023/07/03 08:14:52;;;;;;;;;8.67;6.67;;;;;25.08;49.88;100676.19;4878490;29;45504;-84
2023/07/03 08:17:23;;;;;;;;;7.33;6.00;;;;;25.02;49.95;100641.09;4857236;29;46746;-83
2023/07/03 08:20:11;;;;;;;;;6.67;6.67;;;;;25.19;50.04;100638.47;4859167;29;44890;-82
2023/07/03 08:22:46;;;;;;;;;9.67;9.67;;;;;25.48;48.68;100668.84;4855513;29;44975;-81
2023/07/03 08:25:32;;;;;;;;;9.00;9.00;;;;;25.30;48.87;100638.84;4879463;29;44813;-84
2023/07/03 08:53:52;;;;;;;;;7.00;7.00;;;;;24.01;49.06;100644.72;4885124;29;45179;-82
2023/07/03 08:56:39;;;;;;;;;7.00;7.00;;;;;24.15;49.10;100674.88;4874176;29;44915;-83
2023/07/03 08:59:14;;;;;;;;;10.67;8.00;;;;;23.95;49.38;100672.13;4886833;29;45456;-82
2023/07/03 09:24:22;;;;;;;;;;;;;;;;;;;;;
2023/07/03 09:46:53;;;;;;;;;11.00;9.00;;;;;26.22;45.89;100679.66;5061559;23;46604;-82
2023/07/03 09:49:28;;;;;;;;;7.67;6.00;;;;;26.31;45.89;100683.75;4887922;29;45016;-83
2023/07/03 09:52:08;;;;;;;;;10.33;8.00;;;;;26.29;45.48;100688.38;4856942;29;45424;-82
2023/07/03 09:54:49;;;;;;;;;8.33;8.33;;;;;26.09;45.42;100673.06;4858071;29;44992;-82
2023/07/03 09:57:26;;;;;;;;;7.00;6.00;;;;;25.98;45.79;100680.94;4858244;29;45507;-83
2023/07/03 10:00:16;;;;;;;;;5.25;5.25;;;;;25.70;45.08;100676.84;4871674;29;48334;-82
2023/07/03 10:03:24;;;;;;;;;;;;;;;;;;;;;
2023/07/03 10:06:12;;;;;;;;;6.33;6.00;;;;;25.65;45.93;100673.44;4851291;29;69156;-82
2023/07/03 10:09:16;;;;;;;;;7.00;6.00;;;;;26.19;45.03;100693.44;4859223;29;44878;-83
2023/07/03 10:12:22;;;;;;;;;7.33;6.33;;;;;26.40;44.62;100699.63;4864313;29;45257;-82
2023/07/03 10:21:34;;;;;;;;;9.67;5.67;;;;;26.47;44.48;100664.72;4806429;29;45834;-81
2023/07/03 10:24:09;;;;;;;;;6.67;6.67;;;;;26.67;43.71;100700.03;4800225;29;46758;-83
2023/07/03 10:26:47;;;;;;;;;5.00;5.00;;;;;26.31;43.86;100679.16;4791993;29;45503;-83
2023/07/03 10:33:14;;;;;;;;;5.50;5.00;;;;;26.10;42.08;100683.91;4765036;29;45516;-82
2023/07/03 10:35:57;;;;;;;;;5.00;4.33;;;;;26.02;41.95;100667.06;4767544;29;47342;-82
2023/07/03 10:38:32;;;;;;;;;7.67;6.33;;;;;26.13;41.83;100704.66;4769119;29;44867;-83
2023/07/03 10:51:48;;;;;;;;;;;;;;;;;;;;;
2023/07/03 10:54:30;;;;;;;;;6.33;6.33;;;;;26.48;39.70;100697.38;4809907;29;68065;-83
2023/07/03 11:04:21;;;;;;;;;6.75;5.00;;;;;25.84;38.60;100687.91;4859374;29;45507;-83
2023/07/03 11:07:13;;;;;;;;;4.33;4.00;;;;;25.64;37.94;100648.06;4856785;29;45415;-83
2023/07/03 11:09:53;;;;;;;;;4.33;3.00;;;;;25.50;37.08;100648.75;4845732;29;44877;-82
2023/07/03 11:12:29;;;;;;;;;3.00;3.00;;;;;25.60;36.99;100692.75;4855011;29;46813;-84
2023/07/03 11:15:27;;;;;;;;;4.67;4.00;;;;;25.64;37.37;100691.63;4858876;29;45378;-83
2023/07/03 11:18:14;;;;;;;;;3.00;3.00;;;;;25.77;36.87;100689.16;4862166;29;45690;-82
2023/07/03 11:28:11;;;;;;;;;;;;;;;;;;;;;
2023/07/03 11:30:50;;;;;;;;;4.33;2.67;;;;;25.34;35.57;100678.56;4837523;29;69796;-84
2023/07/03 11:33:22;;;;;;;;;2.00;2.00;;;;;25.24;35.20;100660.03;4842301;29;44852;-84
2023/07/03 11:35:54;;;;;;;;;3.67;3.00;;;;;25.33;35.46;100674.09;4841168;29;45341;-82
2023/07/03 11:38:20;;;;;;;;;3.00;3.00;;;;;25.11;35.15;100670.59;4850982;29;44844;-81
2023/07/03 11:40:55;;;;;;;;;6.00;5.00;;;;;25.33;36.19;100687.69;4841841;29;45511;-84
2023/07/03 11:43:50;;;;;;;;;6.00;4.00;;;;;25.29;35.20;100704.25;4838455;29;45492;-81
2023/07/03 11:46:28;;;;;;;;;4.75;2.50;;;;;25.18;35.25;100685.66;4545559;29;8630355;-83
2023/07/03 11:48:57;;;;;;;;;4.50;2.75;;;;;24.98;35.46;100656.69;4858129;29;44682;-84
2023/07/03 11:51:34;;;;;;;;;6.00;4.50;;;;;25.23;35.84;100697.25;4849769;29;45442;-83
2023/07/03 11:54:19;;;;;;;;;6.67;4.00;;;;;25.37;36.47;100695.69;4827107;29;44862;-82
2023/07/03 12:00:22;;;;;;;;;3.67;3.67;;;;;25.08;35.63;100679.78;4837227;29;45318;-81
2023/07/03 12:02:48;;;;;;;;;3.50;2.75;;;;;24.97;36.23;100692.16;4839487;29;45353;-81
2023/07/03 12:05:47;;;;;;;;;6.00;5.00;;;;;25.06;36.03;100702.56;4837939;29;45436;-82
2023/07/03 12:08:57;;;;;;;;;5.33;3.00;;;;;25.04;35.98;100685.44;4804597;29;47815;-84
2023/07/03 12:15:13;;;;;;;;;6.50;5.00;;;;;24.84;35.82;100657.31;4785559;29;45040;-83
2023/07/03 12:18:28;;;;;;;;;3.00;3.00;;;;;25.12;36.42;100699.56;4781867;29;45304;-83
2023/07/03 12:21:10;;;;;;;;;6.00;3.00;;;;;25.04;36.10;100659.09;4781656;29;45747;-83
2023/07/03 12:23:59;;;;;;;;;9.00;9.00;;;;;25.37;36.23;100703.88;4797662;29;44852;-82
2023/07/03 12:32:10;;;;;;;;;5.50;4.50;;;;;25.42;34.83;100699.97;4854352;29;46353;-84
2023/07/03 12:35:23;;;;;;;;;4.00;4.00;;;;;25.53;34.54;100704.88;4858688;29;44916;-84
2023/07/03 12:38:32;;;;;;;;;;;;;;;;;;;;;
2023/07/03 12:41:06;;;;;;;;;6.00;3.00;;;;;25.33;35.29;100693.16;4853730;29;66956;-84
2023/07/03 12:43:45;;;;;;;;;4.67;3.67;;;;;25.59;35.43;100701.00;4858383;29;45717;-82
2023/07/03 12:50:05;;;;;;;;;5.33;4.67;;;;;25.68;35.39;100682.34;4858627;29;45478;-83
2023/07/03 12:52:35;;;;;;;;;5.00;4.25;;;;;25.95;35.45;100701.03;4859343;29;45441;-83
2023/07/03 12:55:11;;;;;;;;;5.67;5.00;;;;;26.05;35.08;100688.69;4847768;29;47881;-83
2023/07/03 12:57:45;;;;;;;;;3.00;2.75;;;;;26.10;34.92;100697.53;4858859;29;45402;-84
2023/07/03 13:00:53;;;;;;;;;5.00;4.00;;;;;26.17;34.56;100697.22;4860990;29;45430;-82
2023/07/03 13:08:00;;;;;;;;;2.75;2.75;;;;;26.54;34.74;100674.31;4802799;29;45193;-82
2023/07/03 13:14:49;;;;;;;;;;;;;;;;;;;;;
2023/07/03 13:30:42;;;;;;;;;3.67;3.67;;;;;27.21;34.51;100661.59;4871000;23;44982;-82
2023/07/03 13:33:57;;;;;;;;;;;;;;;;;;;;;
2023/07/03 13:36:33;;;;;;;;;4.33;4.33;;;;;27.17;34.57;100635.44;4769027;29;72717;-82
2023/07/03 13:56:34;;;;;;;;;4.00;4.00;;;;;32.30;30.35;100634.78;4794488;29;45508;-83
2023/07/03 13:59:01;;;;;;;;;4.00;4.00;;;;;33.53;28.81;100645.97;4747639;29;46672;-83
2023/07/03 14:01:40;;;;;;;;;4.00;4.00;;;;;34.50;27.01;100638.59;4748488;29;44883;-82
2023/07/03 14:04:06;;;;;;;;;6.00;4.33;;;;;34.91;27.50;100628.50;4776265;29;45473;-82
2023/07/03 14:06:48;;;;;;;;;9.00;5.00;;;;;35.53;26.47;100645.00;4771472;29;45550;-82
2023/07/03 14:09:23;;;;;;;;;4.67;3.67;;;;;35.47;25.92;100624.34;4784909;29;45501;-83
2023/07/03 14:11:55;;;;;;;;;6.00;5.00;;;;;35.67;25.65;100610.53;4786588;29;44829;-84
2023/07/03 14:17:43;;;;;;;;;3.00;3.00;;;;;34.84;25.50;100639.25;4820397;29;44921;-83
2023/07/03 14:20:36;;;;;;;;;5.25;5.25;;;;;34.43;25.26;100649.28;4822414;29;47573;-82
2023/07/03 14:23:12;;;;;;;;;6.33;4.67;;;;;34.75;25.38;100636.41;4826396;29;44927;-84
2023/07/03 14:25:47;;;;;;;;;5.00;4.33;;;;;35.02;24.92;100610.94;4828247;29;45516;-83
2023/07/03 14:31:01;;;;;;;;;5.00;5.00;;;;;35.99;24.00;100638.81;5028069;23;46319;-84
2023/07/03 14:33:35;;;;;;;;;3.00;3.00;;;;;35.74;24.74;100609.84;4877768;29;44971;-82
2023/07/03 14:36:01;;;;;;;;;5.67;5.67;;;;;36.13;23.80;100593.19;4886848;28;44953;-84
2023/07/03 14:38:30;;;;;;;;;3.67;3.67;;;;;36.73;24.85;100600.41;4879052;29;45496;-85
2023/07/03 14:40:58;;;;;;;;;8.00;5.33;;;;;36.93;24.33;100623.38;4893647;29;44989;-85
2023/07/03 14:43:24;;;;;;;;;5.00;5.00;;;;;36.40;23.36;100599.88;4871948;29;45492;-84
2023/07/03 14:45:49;;;;;;;;;4.67;4.67;;;;;36.03;24.58;100615.34;4888333;28;45576;-83